Time;durP1;ratioP1;P1;durP2;ratioP2;P2;SDS_P1;SDS_P2;PMS_P1;PMS_P2;Temp;Humidity;BMP_temperature;BMP_pressure;BME280_temperature;BME280_humidity;BME280_pressure;Samples;Min_cycle;Max_cycle;Signal;HPM_P1;HPM_P2
2022/10/15 00:01:53;;;;;;;18.70;10.60;;;;;;;6.31;100.00;97749.95;108021;1261;59716;-79
2022/10/15 00:04:23;;;;;;;13.80;9.40;;;;;;;6.30;100.00;97748.61;107890;1263;59655;-79
2022/10/15 00:06:52;;;;;;;;;;;;;;;6.28;100.00;97751.15;108005;1266;71424;-78
2022/10/15 00:09:22;;;;;;;18.40;10.30;;;;;;;6.23;100.00;97749.14;107979;1266;68272;-78
2022/10/15 00:11:52;;;;;;;15.90;10.60;;;;;;;6.20;100.00;97750.54;107777;1266;68500;-78
2022/10/15 00:14:23;;;;;;;16.30;9.80;;;;;;;6.14;100.00;97752.35;108016;1267;59716;-78
2022/10/15 00:16:53;;;;;;;14.60;9.00;;;;;;;6.11;100.00;97752.35;107807;1266;59650;-76
2022/10/15 00:19:23;;;;;;;14.80;8.40;;;;;;;6.06;100.00;97751.54;107899;1265;70346;-78
2022/10/15 00:21:52;;;;;;;14.80;8.90;;;;;;;6.02;100.00;97748.29;107935;1266;69234;-78
2022/10/15 00:24:22;;;;;;;13.10;8.40;;;;;;;5.98;100.00;97746.23;107864;1266;69339;-77
2022/10/15 00:26:52;;;;;;;16.10;9.70;;;;;;;5.95;100.00;97746.90;107966;1264;59676;-77
2022/10/15 00:29:23;;;;;;;14.50;9.10;;;;;;;5.93;100.00;97744.75;107923;1269;59712;-77
2022/10/15 00:31:56;;;;;;;14.10;8.60;;;;;;;5.92;100.00;97746.71;107750;1265;71234;-78
2022/10/15 00:34:28;;;;;;;13.40;8.20;;;;;;;5.90;100.00;97740.52;107763;1269;69137;-78
2022/10/15 00:37:00;;;;;;;13.90;8.80;;;;;;;5.87;100.00;97738.77;107766;1266;68433;-78
2022/10/15 00:39:31;;;;;;;12.70;8.00;;;;;;;5.84;100.00;97735.63;107642;1266;59781;-78
2022/10/15 00:42:02;;;;;;;15.00;8.30;;;;;;;5.81;100.00;97735.23;107925;1267;59698;-78
2022/10/15 00:44:32;;;;;;;12.80;8.20;;;;;;;5.80;100.00;97733.60;108005;1267;70586;-78
2022/10/15 00:47:22;;;;;;;11.50;7.80;;;;;;;5.78;100.00;97729.50;108007;1263;69952;-78
2022/10/15 00:50:06;;;;;;;16.60;9.30;;;;;;;5.79;100.00;97732.23;107758;1266;68380;-78
2022/10/15 00:52:53;;;;;;;12.90;8.90;;;;;;;5.80;100.00;97728.39;107848;1258;59707;-78
2022/10/15 00:55:29;;;;;;;12.90;8.10;;;;;;;5.80;100.00;97726.83;107798;1268;59768;-77
2022/10/15 00:58:06;;;;;;;13.90;8.50;;;;;;;5.80;100.00;97726.11;107616;1266;71017;-78
2022/10/15 01:00:37;;;;;;;11.80;8.20;;;;;;;5.80;100.00;97723.55;107842;1266;69430;-78
2022/10/15 01:03:08;;;;;;;11.40;8.10;;;;;;;5.78;100.00;97724.16;108168;1267;68484;-78
2022/10/15 01:05:39;;;;;;;13.20;8.20;;;;;;;5.75;100.00;97720.34;107764;1266;59742;-78
2022/10/15 01:08:12;;;;;;;12.50;8.10;;;;;;;5.74;100.00;97716.41;107991;1267;59695;-78
2022/10/15 01:10:42;;;;;;;;;;;;;;;5.73;100.00;97715.95;107926;1266;71363;-79
2022/10/15 01:13:19;;;;;;;;;;;;;;;5.69;100.00;97717.50;108030;1267;68471;-78
2022/10/15 01:16:06;;;;;;;12.40;8.20;;;;;;;5.68;100.00;97723.42;107877;1263;69899;-78
2022/10/15 01:19:01;;;;;;;10.50;7.40;;;;;;;5.66;100.00;97724.04;107948;1264;59701;-78
2022/10/15 01:22:01;;;;;;;12.10;8.20;;;;;;;5.62;100.00;97723.34;107876;1269;59728;-78
2022/10/15 01:24:50;;;;;;;8.40;6.10;;;;;;;5.59;100.00;97723.36;107939;1267;70630;-78
2022/10/15 01:27:33;;;;;;;10.80;7.30;;;;;;;5.55;100.00;97721.28;107951;1263;69064;-78
2022/10/15 01:30:20;;;;;;;12.80;9.10;;;;;;;5.53;100.00;97722.40;107957;1266;69310;-78
2022/10/15 01:33:06;;;;;;;14.40;9.00;;;;;;;5.53;100.00;97718.96;107778;1269;59770;-78
2022/10/15 01:36:01;;;;;;;18.70;10.70;;;;;;;5.52;100.00;97721.06;107875;1267;59769;-78
2022/10/15 01:38:54;;;;;;;14.30;8.70;;;;;;;5.55;100.00;97723.71;107984;1268;71447;-78
2022/10/15 01:41:25;;;;;;;15.80;9.70;;;;;;;5.56;100.00;97722.28;107817;1264;68696;-78
2022/10/15 01:44:02;;;;;;;16.60;9.70;;;;;;;5.57;100.00;97724.11;107989;1268;69485;-76
2022/10/15 01:47:03;;;;;;;12.90;9.10;;;;;;;5.58;100.00;97724.23;107994;1267;59684;-78
2022/10/15 01:49:40;;;;;;;15.20;9.30;;;;;;;5.58;100.00;97721.62;107842;1267;59760;-75
2022/10/15 01:52:20;;;;;;;16.20;8.70;;;;;;;5.57;100.00;97724.09;107871;1266;70525;-77
2022/10/15 01:54:52;;;;;;;10.60;7.00;;;;;;;5.54;100.00;97721.35;107751;1268;69700;-78
2022/10/15 01:57:27;;;;;;;14.60;8.50;;;;;;;5.52;100.00;97719.36;107825;1267;68456;-78
2022/10/15 02:00:00;;;;;;;13.60;8.80;;;;;;;5.51;100.00;97719.05;107722;1269;59744;-77
2022/10/15 02:02:30;;;;;;;12.20;7.90;;;;;;;5.49;100.00;97718.63;107743;1267;59655;-77
2022/10/15 02:05:04;;;;;;;13.40;8.30;;;;;;;5.46;100.00;97717.40;107821;1266;70236;-77
2022/10/15 02:08:07;;;;;;;12.70;8.80;;;;;;;5.43;100.00;97722.71;107749;1267;69297;-78
2022/10/15 02:11:04;;;;;;;12.90;8.30;;;;;;;5.40;100.00;97726.33;107487;1270;68334;-76
2022/10/15 02:13:52;;;;;;;13.30;8.80;;;;;;;5.39;100.00;97728.44;107786;1267;59760;-78
2022/10/15 02:17:02;;;;;;;14.70;9.20;;;;;;;5.36;100.00;97728.75;107916;1268;59759;-77
2022/10/15 02:19:57;;;;;;;14.10;9.30;;;;;;;5.32;100.00;97726.34;107881;1267;71630;-79
2022/10/15 02:22:45;;;;;;;10.30;7.00;;;;;;;5.28;100.00;97728.42;107939;1267;69054;-78
2022/10/15 02:25:21;;;;;;;11.50;7.60;;;;;;;5.24;100.00;97727.94;107682;1268;69229;-78
2022/10/15 02:27:56;;;;;;;12.90;8.20;;;;;;;5.19;100.00;97729.02;107650;1267;59774;-79
2022/10/15 02:30:28;;;;;;;14.60;8.20;;;;;;;5.18;100.00;97732.70;107769;1269;59721;-79
2022/10/15 02:32:59;;;;;;;13.70;8.50;;;;;;;5.16;100.00;97729.02;107776;1267;70633;-75
2022/10/15 02:35:28;;;;;;;15.60;9.30;;;;;;;5.15;100.00;97727.51;107784;1266;68256;-77
2022/10/15 02:38:04;;;;;;;14.80;8.70;;;;;;;5.14;100.00;97723.23;107871;1267;69184;-78
2022/10/15 02:40:36;;;;;;;12.90;8.70;;;;;;;5.12;100.00;97725.71;107770;1267;59769;-78
2022/10/15 02:43:09;;;;;;;9.50;6.60;;;;;;;5.11;100.00;97729.40;107778;1267;59749;-79
2022/10/15 02:45:38;;;;;;;12.10;7.80;;;;;;;5.11;100.00;97726.27;107715;1266;71332;-79
2022/10/15 02:48:08;;;;;;;12.00;7.60;;;;;;;5.13;100.00;97728.10;107871;1267;67533;-79
2022/10/15 02:50:39;;;;;;;10.40;7.50;;;;;;;5.16;100.00;97724.69;107762;1267;69766;-77
2022/10/15 02:53:09;;;;;;;12.60;8.50;;;;;;;5.19;100.00;97727.46;107850;1266;59762;-77
2022/10/15 02:55:39;;;;;;;11.70;7.20;;;;;;;5.20;100.00;97730.18;107797;1267;59781;-77
2022/10/15 02:58:10;;;;;;;8.80;5.80;;;;;;;5.20;100.00;97729.34;107929;1268;71915;-77
2022/10/15 03:00:45;;;;;;;10.40;7.00;;;;;;;5.20;100.00;97729.13;107729;1267;68502;-77
2022/10/15 03:03:16;;;;;;;10.80;7.30;;;;;;;5.26;100.00;97730.77;107973;1267;68580;-77
2022/10/15 03:05:46;;;;;;;;;;;;;;;5.31;100.00;97731.77;107967;1268;59677;-77
2022/10/15 03:08:16;;;;;;;12.80;7.40;;;;;;;5.33;100.00;97730.65;107881;1267;59696;-77
2022/10/15 03:10:47;;;;;;;12.80;8.40;;;;;;;5.34;100.00;97731.98;107874;1267;71432;-77
2022/10/15 03:13:17;;;;;;;11.70;8.60;;;;;;;5.29;100.00;97729.95;107805;1267;69786;-77
2022/10/15 03:15:51;;;;;;;14.30;9.50;;;;;;;5.22;100.00;97734.06;107870;1263;69125;-79
2022/10/15 03:18:22;;;;;;;13.00;8.40;;;;;;;5.18;100.00;97732.73;107852;1267;59661;-78
2022/10/15 03:20:56;;;;;;;14.80;8.60;;;;;;;5.13;100.00;97733.61;107905;1267;59713;-77
2022/10/15 03:23:27;;;;;;;14.00;8.00;;;;;;;5.09;100.00;97733.60;107894;1267;70594;-77
2022/10/15 03:26:06;;;;;;;12.00;8.50;;;;;;;5.07;100.00;97737.35;107818;1267;69589;-77
2022/10/15 03:28:37;;;;;;;13.60;8.90;;;;;;;5.05;100.00;97739.84;107788;1269;68501;-78
2022/10/15 03:31:08;;;;;;;13.00;7.60;;;;;;;5.03;100.00;97740.64;107790;1267;59720;-76
2022/10/15 03:33:39;;;;;;;13.00;9.20;;;;;;;5.02;100.00;97739.31;107710;1267;59685;-77
2022/10/15 03:36:10;;;;;;;12.90;8.40;;;;;;;5.01;100.00;97736.94;107706;1265;71204;-77
2022/10/15 03:38:40;;;;;;;12.10;8.80;;;;;;;4.99;100.00;97737.86;107832;1267;69101;-77
2022/10/15 03:41:12;;;;;;;14.40;8.70;;;;;;;4.99;100.00;97736.66;107781;1267;69576;-77
2022/10/15 03:43:43;;;;;;;13.60;8.30;;;;;;;4.99;100.00;97735.64;107708;1270;59744;-76
2022/10/15 03:46:12;;;;;;;14.00;8.00;;;;;;;4.99;100.00;97736.33;107815;1268;59723;-77
2022/10/15 03:48:49;;;;;;;13.40;9.10;;;;;;;4.97;100.00;97737.09;107997;1267;71944;-79
2022/10/15 03:51:20;;;;;;;14.50;9.10;;;;;;;4.95;100.00;97739.26;107797;1267;69048;-77
2022/10/15 03:53:58;;;;;;;13.30;9.30;;;;;;;4.91;100.00;97739.09;108034;1267;68615;-78
2022/10/15 03:56:28;;;;;;;12.30;9.10;;;;;;;4.89;100.00;97741.64;107752;1262;59731;-78
2022/10/15 03:59:12;;;;;;;12.40;8.90;;;;;;;4.87;100.00;97740.84;107840;1261;59700;-78
2022/10/15 04:01:43;;;;;;;10.50;7.30;;;;;;;4.87;100.00;97743.77;107991;1268;70618;-78
2022/10/15 04:04:13;;;;;;;14.80;10.20;;;;;;;4.87;100.00;97743.27;107889;1267;68544;-78
2022/10/15 04:06:44;;;;;;;13.00;8.80;;;;;;;4.87;100.00;97747.59;108038;1267;70033;-78
2022/10/15 04:09:14;;;;;;;13.10;8.80;;;;;;;4.87;100.00;97746.02;107908;1267;59778;-77
2022/10/15 04:11:43;;;;;;;13.40;9.40;;;;;;;4.88;100.00;97743.05;107938;1265;59772;-77
2022/10/15 04:14:12;;;;;;;12.70;8.90;;;;;;;4.89;100.00;97743.88;107993;1263;72121;-78
2022/10/15 04:16:43;;;;;;;11.30;7.60;;;;;;;4.89;100.00;97742.30;107901;1267;69487;-77
2022/10/15 04:19:16;;;;;;;17.30;13.80;;;;;;;4.89;100.00;97743.52;107855;1267;68321;-77
2022/10/15 04:21:52;;;;;;;16.80;14.20;;;;;;;4.92;100.00;97743.77;107943;1263;59782;-77
2022/10/15 04:24:35;;;;;;;17.00;12.40;;;;;;;4.94;100.00;97743.65;107909;1265;59625;-76
2022/10/15 04:27:03;;;;;;;;;;;;;;;4.92;100.00;97745.11;107779;1267;71391;-77
2022/10/15 04:29:34;;;;;;;12.00;7.80;;;;;;;4.86;100.00;97745.88;107782;1267;69311;-75
2022/10/15 04:32:16;;;;;;;13.30;8.30;;;;;;;4.87;100.00;97747.58;107931;1267;69304;-74
2022/10/15 04:34:47;;;;;;;9.40;6.90;;;;;;;4.89;100.00;97748.69;107916;1267;59760;-77
2022/10/15 04:37:16;;;;;;;;;;;;;;;4.93;100.00;97749.05;107904;1264;59756;-76
2022/10/15 04:39:46;;;;;;;16.50;10.30;;;;;;;4.96;100.00;97748.41;107874;1270;71220;-76
2022/10/15 04:42:15;;;;;;;14.60;9.60;;;;;;;4.98;100.00;97751.58;108020;1263;68313;-77
2022/10/15 04:44:45;;;;;;;14.10;9.60;;;;;;;5.00;100.00;97749.58;107924;1267;69495;-78
2022/10/15 04:47:14;;;;;;;15.10;9.80;;;;;;;5.01;100.00;97748.30;107952;1266;59726;-78
2022/10/15 04:49:45;;;;;;;17.30;10.40;;;;;;;5.04;100.00;97747.65;107910;1263;59645;-77
2022/10/15 04:52:28;;;;;;;20.40;10.40;;;;;;;5.08;100.00;97748.17;108085;1266;70558;-77
2022/10/15 04:54:58;;;;;;;14.60;9.50;;;;;;;5.12;100.00;97748.16;107880;1263;68662;-77
2022/10/15 04:57:27;;;;;;;14.80;10.10;;;;;;;5.19;100.00;97752.51;108043;1266;69989;-77
2022/10/15 04:59:56;;;;;;;13.60;8.50;;;;;;;5.26;100.00;97753.08;107918;1267;59719;-77
2022/10/15 05:02:34;;;;;;;11.90;7.90;;;;;;;5.34;100.00;97753.20;107951;1267;59740;-76
2022/10/15 05:05:31;;;;;;;13.80;8.90;;;;;;;5.48;100.00;97754.45;107849;1265;71880;-77
2022/10/15 05:08:04;;;;;;;12.10;8.10;;;;;;;5.58;100.00;97754.52;108005;1262;70933;-77
2022/10/15 05:10:38;;;;;;;14.40;9.90;;;;;;;5.67;100.00;97757.54;107998;1267;68488;-76
2022/10/15 05:13:08;;;;;;;11.60;8.30;;;;;;;5.76;100.00;97758.16;107998;1267;59714;-77
2022/10/15 05:15:38;;;;;;;13.10;9.20;;;;;;;5.82;100.00;97758.41;107916;1263;59763;-77
2022/10/15 05:18:08;;;;;;;11.30;8.30;;;;;;;5.88;100.00;97758.96;107685;1267;71466;-77
2022/10/15 05:20:48;;;;;;;14.10;9.30;;;;;;;5.97;100.00;97760.09;107887;1267;68638;-76
2022/10/15 05:23:18;;;;;;;14.70;10.50;;;;;;;6.04;100.00;97760.63;107897;1265;68590;-77
2022/10/15 05:26:12;;;;;;;15.20;11.00;;;;;;;6.09;100.00;97763.16;107887;1267;59696;-77
2022/10/15 05:28:41;;;;;;;16.20;9.90;;;;;;;6.18;100.00;97764.27;108005;1267;59711;-76
2022/10/15 05:31:17;;;;;;;12.00;8.50;;;;;;;6.32;100.00;97763.73;107969;1267;70563;-76
2022/10/15 05:33:48;;;;;;;12.50;9.10;;;;;;;6.49;100.00;97763.77;108011;1267;68463;-76
2022/10/15 05:36:21;;;;;;;13.60;10.20;;;;;;;6.67;100.00;97765.98;107406;1263;431399;-73
2022/10/15 05:38:56;;;;;;;15.00;9.50;;;;;;;6.85;100.00;97763.82;107719;1266;59648;-77
2022/10/15 05:41:26;;;;;;;15.70;10.30;;;;;;;7.08;100.00;97767.08;107621;1263;59669;-77
2022/10/15 05:43:57;;;;;;;20.40;14.90;;;;;;;7.28;100.00;97766.05;107749;1267;70626;-76
2022/10/15 05:46:27;;;;;;;14.80;11.90;;;;;;;7.38;100.00;97771.58;107910;1267;69444;-76
2022/10/15 05:48:57;;;;;;;15.60;11.70;;;;;;;7.41;100.00;97777.32;107970;1262;69738;-77
2022/10/15 05:51:27;;;;;;;16.30;12.40;;;;;;;7.44;99.90;97778.20;107805;1263;59692;-76
2022/10/15 05:54:01;;;;;;;20.70;15.10;;;;;;;7.49;99.79;97779.65;107869;1263;59665;-76
2022/10/15 05:56:36;;;;;;;20.90;15.60;;;;;;;7.50;99.58;97778.73;107915;1267;70687;-76
2022/10/15 05:59:12;;;;;;;24.10;15.80;;;;;;;7.54;99.12;97780.61;107898;1266;69224;-77
2022/10/15 06:01:40;;;;;;;20.60;15.70;;;;;;;7.63;99.46;97783.52;107823;1263;69307;-77
2022/10/15 06:04:09;;;;;;;18.00;12.80;;;;;;;7.84;99.96;97789.50;107706;1266;59700;-77
2022/10/15 06:06:39;;;;;;;;;;;;;;;8.16;100.00;97796.38;107701;1264;59687;-76
2022/10/15 06:09:07;;;;;;;19.10;11.70;;;;;;;8.50;98.32;97798.48;107854;1263;71900;-74
2022/10/15 06:11:41;;;;;;;14.30;11.70;;;;;;;8.82;95.99;97796.90;107585;1266;69628;-74
2022/10/15 06:14:10;;;;;;;16.10;13.40;;;;;;;9.18;97.34;97802.05;107847;1267;69307;-77
2022/10/15 06:16:39;;;;;;;15.70;13.60;;;;;;;9.49;97.46;97805.84;107748;1266;59693;-77
2022/10/15 06:19:07;;;;;;;20.00;16.50;;;;;;;9.73;91.89;97808.39;107759;1263;60441;-77
2022/10/15 06:21:36;;;;;;;17.00;15.10;;;;;;;9.91;89.33;97811.62;107825;1267;71972;-77
2022/10/15 06:24:06;;;;;;;18.20;15.70;;;;;;;10.06;86.95;97811.30;107770;1265;69114;-77
2022/10/15 06:26:41;;;;;;;19.10;16.20;;;;;;;10.29;86.51;97814.23;107659;1267;69260;-77
2022/10/15 06:29:13;;;;;;;18.60;15.60;;;;;;;10.51;84.92;97817.30;107792;1264;59755;-77
2022/10/15 06:31:42;;;;;;;14.30;12.70;;;;;;;10.80;83.52;97818.82;108042;1267;59669;-77
2022/10/15 06:34:12;;;;;;;16.80;15.10;;;;;;;11.14;82.22;97822.11;107817;1267;71801;-77
2022/10/15 06:36:45;;;;;;;17.00;15.20;;;;;;;11.44;81.51;97824.79;108073;1262;69037;-76
2022/10/15 06:39:14;;;;;;;16.70;13.90;;;;;;;11.75;80.98;97827.11;107889;1267;69716;-76
2022/10/15 06:41:45;;;;;;;16.60;14.40;;;;;;;11.89;78.12;97829.85;108002;1263;59778;-76
2022/10/15 06:44:14;;;;;;;12.90;11.50;;;;;;;12.22;76.94;97833.72;107784;1263;59762;-75
2022/10/15 06:46:42;;;;;;;18.30;12.60;;;;;;;12.46;75.15;97835.33;108011;1266;71036;-76
2022/10/15 06:49:11;;;;;;;13.70;11.80;;;;;;;12.55;73.91;97838.96;107827;1267;69204;-77
2022/10/15 06:51:43;;;;;;;14.50;11.80;;;;;;;13.06;73.00;97836.77;107706;1270;68334;-75
2022/10/15 06:54:12;;;;;;;11.30;8.90;;;;;;;13.52;70.76;97831.81;107879;1267;59767;-76
2022/10/15 06:56:41;;;;;;;9.60;8.60;;;;;;;13.87;68.74;97836.82;107982;1263;59734;-76
2022/10/15 06:59:09;;;;;;;9.20;6.90;;;;;;;14.40;70.45;97840.07;107720;1267;70639;-75
2022/10/15 07:01:38;;;;;;;11.90;8.80;;;;;;;14.84;65.27;97845.96;107951;1263;69294;-75
2022/10/15 07:04:10;;;;;;;9.50;8.50;;;;;;;15.01;64.54;97843.21;107734;1266;69895;-75
2022/10/15 07:06:40;;;;;;;8.70;7.30;;;;;;;15.24;61.97;97840.30;107830;1262;59699;-73
2022/10/15 07:09:08;;;;;;;;;;;;;;;15.21;60.88;97840.20;108021;1267;60005;-76
2022/10/15 07:11:37;;;;;;;9.30;7.60;;;;;;;15.48;62.64;97840.19;108087;1266;70568;-75
2022/10/15 07:14:06;;;;;;;9.20;8.30;;;;;;;15.85;60.89;97835.74;107933;1263;69671;-75
2022/10/15 07:16:36;;;;;;;7.60;6.10;;;;;;;16.22;60.62;97836.72;107742;1267;69288;-75
2022/10/15 07:19:05;;;;;;;6.90;6.10;;;;;;;16.67;58.35;97834.42;107950;1264;60048;-74
2022/10/15 07:21:33;;;;;;;7.50;6.20;;;;;;;16.94;58.15;97834.66;107984;1268;59812;-75
2022/10/15 07:24:02;;;;;;;7.80;6.40;;;;;;;17.35;58.09;97831.87;107934;1263;71475;-79
2022/10/15 07:26:32;;;;;;;7.90;6.40;;;;;;;17.46;56.25;97833.64;108093;1267;69148;-77
2022/10/15 07:29:03;;;;;;;7.80;5.40;;;;;;;17.92;56.51;97831.23;107865;1263;69229;-76
2022/10/15 07:31:32;;;;;;;8.50;6.50;;;;;;;18.01;54.11;97824.90;107991;1263;59774;-77
2022/10/15 07:34:00;;;;;;;9.20;6.10;;;;;;;18.29;53.71;97825.66;107862;1265;59734;-76
2022/10/15 07:36:32;;;;;;;8.80;6.40;;;;;;;18.77;52.87;97828.21;107845;1266;71139;-76
2022/10/15 07:39:01;;;;;;;8.50;6.90;;;;;;;18.94;51.69;97831.05;107900;1266;69147;-76
2022/10/15 07:41:30;;;;;;;7.00;6.10;;;;;;;18.98;51.79;97830.87;107813;1263;69247;-77
2022/10/15 07:44:00;;;;;;;6.60;5.90;;;;;;;19.15;49.30;97829.29;107950;1265;59707;-74
2022/10/15 07:46:36;;;;;;;6.90;6.20;;;;;;;19.17;49.90;97828.73;107918;1266;59658;-76
2022/10/15 07:49:04;;;;;;;6.50;5.40;;;;;;;19.42;49.16;97835.77;107919;1262;71413;-76
2022/10/15 07:51:33;;;;;;;6.10;5.50;;;;;;;19.38;50.22;97836.52;107737;1266;69922;-76
2022/10/15 07:54:06;;;;;;;7.20;6.00;;;;;;;19.38;49.32;97834.92;107928;1266;69680;-75
2022/10/15 07:56:35;;;;;;;7.60;5.30;;;;;;;19.40;49.40;97836.69;107765;1263;60121;-76
2022/10/15 07:59:03;;;;;;;6.40;5.20;;;;;;;19.70;48.02;97832.48;107806;1264;59763;-76
2022/10/15 08:01:32;;;;;;;7.00;5.10;;;;;;;20.13;47.35;97831.95;107894;1267;71361;-75
2022/10/15 08:04:01;;;;;;;6.00;4.90;;;;;;;20.02;46.18;97835.42;107721;1266;69282;-75
2022/10/15 08:06:31;;;;;;;5.50;5.00;;;;;;;20.16;47.32;97835.84;107699;1262;69612;-76
2022/10/15 08:09:00;;;;;;;5.80;4.70;;;;;;;20.48;46.07;97835.19;107638;1262;59781;-76
2022/10/15 08:11:29;;;;;;;7.60;5.30;;;;;;;20.68;45.49;97836.34;107685;1267;59699;-76
2022/10/15 08:13:58;;;;;;;5.90;4.80;;;;;;;20.97;45.30;97831.70;107908;1266;71195;-75
2022/10/15 08:16:26;;;;;;;5.40;4.90;;;;;;;21.39;44.91;97825.69;107731;1258;69922;-76
2022/10/15 08:18:59;;;;;;;5.60;4.80;;;;;;;21.46;43.40;97822.48;107906;1264;69874;-74
2022/10/15 08:21:28;;;;;;;6.50;5.60;;;;;;;21.66;43.10;97821.38;107905;1262;59830;-76
2022/10/15 08:23:59;;;;;;;6.40;5.50;;;;;;;21.73;43.52;97820.45;107768;1266;59766;-76
2022/10/15 08:26:34;;;;;;;5.60;5.00;;;;;;;22.30;42.39;97822.15;107776;1262;71998;-77
2022/10/15 08:29:03;;;;;;;6.10;5.40;;;;;;;22.10;41.60;97818.84;107708;1257;68731;-76
2022/10/15 08:31:32;;;;;;;6.20;5.10;;;;;;;21.72;40.99;97815.77;107712;1267;69289;-77
2022/10/15 08:34:02;;;;;;;6.50;5.00;;;;;;;22.32;41.65;97819.76;107998;1266;59719;-78
2022/10/15 08:36:30;;;;;;;8.20;5.30;;;;;;;22.84;41.55;97819.48;107761;1262;59715;-78
2022/10/15 08:38:59;;;;;;;5.10;4.30;;;;;;;23.06;40.37;97818.46;107771;1267;72560;-77
2022/10/15 08:41:41;;;;;;;5.40;4.10;;;;;;;23.55;40.88;97815.73;107915;1261;68460;-77
2022/10/15 08:44:22;;;;;;;5.50;4.90;;;;;;;23.93;39.63;97816.80;107996;1263;69812;-78
2022/10/15 08:46:58;;;;;;;6.40;4.70;;;;;;;23.17;39.03;97820.16;107793;1263;59761;-77
2022/10/15 08:49:43;;;;;;;5.70;4.60;;;;;;;23.59;38.83;97819.28;107724;1266;59769;-78
2022/10/15 08:52:43;;;;;;;6.70;4.40;;;;;;;23.96;38.94;97823.90;107762;1263;70957;-79
2022/10/15 08:55:15;;;;;;;5.80;4.20;;;;;;;23.56;36.82;97822.84;107750;1266;68501;-78
2022/10/15 08:58:12;;;;;;;5.70;5.10;;;;;;;23.20;37.29;97827.12;107796;1267;69983;-77
2022/10/15 09:01:18;;;;;;;7.10;5.30;;;;;;;23.99;36.42;97822.90;107753;1262;59731;-76
2022/10/15 09:04:12;;;;;;;5.70;4.80;;;;;;;22.74;37.29;97818.15;107858;1263;59666;-77
2022/10/15 09:06:41;;;;;;;5.70;5.20;;;;;;;23.82;36.85;97817.42;107813;1262;72077;-77
2022/10/15 09:09:29;;;;;;;5.30;4.80;;;;;;;23.76;36.28;97816.89;107789;1266;69824;-77
2022/10/15 09:12:16;;;;;;;6.10;4.00;;;;;;;22.80;36.59;97814.36;107749;1269;69745;-76
2022/10/15 09:14:47;;;;;;;6.00;4.60;;;;;;;22.22;38.78;97817.95;107804;1262;59719;-77
2022/10/15 09:17:24;;;;;;;4.70;4.00;;;;;;;23.12;37.62;97823.27;107831;1266;59748;-78
2022/10/15 09:19:55;;;;;;;6.20;5.30;;;;;;;23.84;36.85;97820.41;108110;1262;71190;-76
2022/10/15 09:22:27;;;;;;;6.00;4.70;;;;;;;23.97;35.65;97818.84;107959;1264;69818;-76
2022/10/15 09:24:56;;;;;;;5.10;4.60;;;;;;;23.48;36.62;97819.71;107752;1266;69331;-75
2022/10/15 09:27:37;;;;;;;5.30;4.30;;;;;;;23.90;36.25;97819.23;107936;1267;59727;-75
2022/10/15 09:30:40;;;;;;;4.90;4.20;;;;;;;24.74;35.17;97820.70;108047;1266;59693;-76
2022/10/15 09:33:45;;;;;;;7.70;5.00;;;;;;;24.96;34.31;97819.55;108065;1267;72093;-75
2022/10/15 09:36:31;;;;;;;5.80;4.00;;;;;;;25.21;33.42;97821.29;107732;1267;69720;-76
2022/10/15 09:39:29;;;;;;;5.70;4.60;;;;;;;25.19;33.86;97819.05;107792;1266;69269;-76
2022/10/15 09:42:21;;;;;;;6.80;4.90;;;;;;;25.84;33.51;97810.30;107765;1266;59776;-76
2022/10/15 09:44:51;;;;;;;6.60;5.40;;;;;;;25.05;33.37;97816.99;107776;1262;59717;-74
2022/10/15 09:47:32;;;;;;;5.00;4.50;;;;;;;24.87;34.01;97816.76;107876;1267;72125;-75
2022/10/15 09:50:07;;;;;;;5.10;4.60;;;;;;;24.86;34.16;97814.75;107719;1263;68705;-74
2022/10/15 09:53:02;;;;;;;6.20;5.30;;;;;;;24.31;35.08;97807.53;107811;1261;68105;-74
2022/10/15 09:55:37;;;;;;;5.90;4.70;;;;;;;24.50;34.62;97809.08;107621;1265;59788;-74
2022/10/15 09:58:17;;;;;;;5.30;4.40;;;;;;;24.85;33.38;97802.80;107626;1263;59759;-75
2022/10/15 10:01:16;;;;;;;5.60;4.80;;;;;;;24.32;34.58;97799.98;107634;1264;71918;-75
2022/10/15 10:03:49;;;;;;;6.10;5.50;;;;;;;24.38;34.60;97799.39;107783;1266;69290;-76
2022/10/15 10:06:18;;;;;;;5.60;3.90;;;;;;;24.40;34.40;97797.73;107699;1266;69424;-75
2022/10/15 10:08:51;;;;;;;5.80;5.00;;;;;;;24.38;34.56;97799.85;107737;1266;59822;-76
2022/10/15 10:11:22;;;;;;;5.50;4.60;;;;;;;23.96;35.96;97797.35;107848;1266;59682;-75
2022/10/15 10:13:53;;;;;;;6.50;4.80;;;;;;;24.46;34.72;97798.27;107723;1266;71418;-74
2022/10/15 10:16:23;;;;;;;6.40;5.20;;;;;;;24.32;34.73;97796.89;107769;1266;69248;-75
2022/10/15 10:19:05;;;;;;;5.40;4.90;;;;;;;24.46;34.26;97796.33;107765;1263;68447;-75
2022/10/15 10:21:38;;;;;;;5.20;4.60;;;;;;;24.38;35.31;97798.16;107656;1266;59776;-76
2022/10/15 10:24:30;;;;;;;5.90;4.50;;;;;;;24.16;35.69;97796.55;107665;1266;59729;-74
2022/10/15 10:27:01;;;;;;;11.00;5.80;;;;;;;24.28;35.12;97796.30;107764;1262;71928;-74
2022/10/15 10:29:38;;;;;;;6.80;5.00;;;;;;;24.08;34.94;97798.80;107806;1266;69146;-74
2022/10/15 10:32:17;;;;;;;6.20;5.00;;;;;;;25.02;34.37;97796.77;107789;1258;68365;-75
2022/10/15 10:34:46;;;;;;;4.70;4.20;;;;;;;24.99;33.34;97793.17;107738;1263;59731;-74
2022/10/15 10:37:20;;;;;;;7.50;4.80;;;;;;;25.66;33.35;97790.40;107750;1263;59730;-75
2022/10/15 10:39:56;;;;;;;4.80;4.30;;;;;;;26.19;32.07;97787.88;107965;1263;72094;-74
2022/10/15 10:42:27;;;;;;;7.40;4.60;;;;;;;26.46;31.64;97782.45;107834;1266;69516;-74
2022/10/15 10:45:14;;;;;;;6.00;5.30;;;;;;;26.56;31.22;97781.98;107843;1263;69284;-75
2022/10/15 10:47:47;;;;;;;5.20;4.70;;;;;;;26.56;30.70;97782.81;107865;1259;59685;-75
2022/10/15 10:50:34;;;;;;;6.20;4.60;;;;;;;25.63;31.35;97777.50;107798;1257;59695;-74
2022/10/15 10:53:23;;;;;;;6.90;4.90;;;;;;;24.37;33.71;97778.52;107793;1265;70634;-75
2022/10/15 10:55:56;;;;;;;5.00;4.30;;;;;;;24.01;34.15;97785.05;107705;1259;71096;-77
2022/10/15 10:58:33;;;;;;;6.80;4.70;;;;;;;24.30;34.15;97785.16;108007;1262;69935;-75
2022/10/15 11:01:02;;;;;;;5.60;5.00;;;;;;;25.49;32.02;97782.35;107805;1265;59743;-77
2022/10/15 11:03:44;;;;;;;6.30;5.40;;;;;;;26.24;30.90;97780.95;107826;1266;59700;-74
2022/10/15 11:06:34;;;;;;;8.50;7.60;;;;;;;26.84;30.00;97784.82;107645;1262;71384;-75
2022/10/15 11:09:20;;;;;;;4.90;3.90;;;;;;;27.31;29.47;97784.13;107695;1266;69523;-75
2022/10/15 11:11:54;;;;;;;5.90;5.30;;;;;;;27.31;28.02;97779.25;107850;1262;68776;-74
2022/10/15 11:14:31;;;;;;;7.90;5.50;;;;;;;27.04;29.29;97779.95;107784;1262;59719;-77
2022/10/15 11:17:28;;;;;;;6.30;4.80;;;;;;;27.00;30.15;97776.91;108208;1266;59727;-76
2022/10/15 11:20:02;;;;;;;4.20;3.60;;;;;;;26.43;29.93;97773.48;107808;1261;71888;-76
2022/10/15 11:23:14;;;;;;;4.30;3.70;;;;;;;27.22;29.46;97770.43;107855;1266;69121;-77
2022/10/15 11:25:58;;;;;;;4.40;3.70;;;;;;;27.27;28.17;97767.42;108107;1266;69239;-73
2022/10/15 11:28:43;;;;;;;9.00;4.90;;;;;;;25.66;30.49;97762.03;107887;1266;59717;-75
2022/10/15 11:31:52;;;;;;;13.30;10.10;;;;;;;26.16;30.27;97754.34;107886;1262;59650;-76
2022/10/15 11:35:04;;;;;;;5.70;4.20;;;;;;;27.07;29.61;97751.14;107748;1262;72140;-74
2022/10/15 11:37:42;;;;;;;4.80;4.20;;;;;;;28.19;29.04;97751.45;107883;1262;69988;-75
2022/10/15 11:40:49;;;;;;;7.70;6.90;;;;;;;28.60;27.91;97748.23;107871;1261;69997;-76
2022/10/15 11:43:53;;;;;;;8.30;7.20;;;;;;;27.88;27.98;97747.60;107743;1264;59690;-76
2022/10/15 11:46:41;;;;;;;6.70;4.90;;;;;;;26.55;29.29;97742.60;107935;1262;59054;-74
2022/10/15 11:49:32;;;;;;;5.30;4.60;;;;;;;27.08;29.94;97742.63;108064;1262;71896;-75
2022/10/15 11:52:02;;;;;;;5.30;4.60;;;;;;;26.73;28.93;97743.02;108045;1266;69057;-75
2022/10/15 11:54:40;;;;;;;5.30;4.40;;;;;;;25.83;29.90;97740.84;108164;1262;70029;-76
2022/10/15 11:57:14;;;;;;;6.10;5.00;;;;;;;25.91;29.82;97739.45;107990;1261;59718;-74
2022/10/15 11:59:43;;;;;;;7.20;5.60;;;;;;;25.62;30.94;97739.45;108167;1266;59639;-76
2022/10/15 12:02:18;;;;;;;5.00;4.50;;;;;;;26.73;30.40;97740.14;108056;1266;71516;-76